createdAt,value
2022-10-05T00:01:30.279Z,7.40
2022-10-05T00:04:14.622Z,7.18
2022-10-05T00:06:54.984Z,6.82
2022-10-05T00:09:21.759Z,7.53
2022-10-05T00:11:48.635Z,7.78
2022-10-05T00:14:20.726Z,6.38
2022-10-05T00:16:47.373Z,6.28
2022-10-05T00:19:22.843Z,6.53
2022-10-05T00:21:48.742Z,6.63
2022-10-05T00:24:18.668Z,6.97
2022-10-05T00:26:44.768Z,6.35
2022-10-05T00:29:21.262Z,5.72
2022-10-05T00:31:47.830Z,6.93
2022-10-05T00:34:14.333Z,6.10
2022-10-05T00:36:40.933Z,7.00
2022-10-05T00:39:07.035Z,6.70
2022-10-05T00:41:54.611Z,6.25
2022-10-05T00:44:48.178Z,5.95
2022-10-05T00:47:34.271Z,6.65
2022-10-05T00:50:05.687Z,6.60
2022-10-05T00:52:43.568Z,6.68
2022-10-05T00:56:03.080Z,6.25
2022-10-05T00:58:49.973Z,6.68
2022-10-05T01:01:53.785Z,7.05
2022-10-05T01:04:40.468Z,6.30
2022-10-05T01:07:06.276Z,6.15
2022-10-05T01:09:40.970Z,5.95
2022-10-05T01:12:13.484Z,5.90
2022-10-05T01:15:05.488Z,6.85
2022-10-05T01:17:37.110Z,6.68
2022-10-05T01:20:20.238Z,6.60
2022-10-05T01:23:13.909Z,6.97
2022-10-05T01:26:17.021Z,6.60
2022-10-05T01:29:02.067Z,6.53
2022-10-05T01:31:45.003Z,6.13
2022-10-05T01:34:26.405Z,6.93
2022-10-05T01:37:04.316Z,7.10
2022-10-05T01:39:32.629Z,6.47
2022-10-05T01:42:04.992Z,6.57
2022-10-05T01:44:51.683Z,5.97
2022-10-05T01:47:34.069Z,6.30
2022-10-05T01:50:03.909Z,6.32
2022-10-05T01:52:44.058Z,6.57
2022-10-05T01:55:12.615Z,5.95
2022-10-05T01:58:09.518Z,5.60
2022-10-05T02:00:48.773Z,6.63
2022-10-05T02:03:30.127Z,6.53
2022-10-05T02:06:01.034Z,6.85
2022-10-05T02:08:34.239Z,6.30
2022-10-05T02:11:07.382Z,6.75
2022-10-05T02:13:43.272Z,6.35
2022-10-05T02:16:23.738Z,7.03
2022-10-05T02:19:02.818Z,6.45
2022-10-05T02:21:32.921Z,6.53
2022-10-05T02:24:04.371Z,6.50
2022-10-05T02:26:31.372Z,6.88
2022-10-05T02:29:05.856Z,7.07
2022-10-05T02:31:45.104Z,6.82
2022-10-05T02:34:36.359Z,7.43
2022-10-05T02:37:26.602Z,8.35
2022-10-05T02:40:13.963Z,8.63
2022-10-05T02:42:51.571Z,7.70
2022-10-05T02:45:31.320Z,8.80
2022-10-05T02:47:57.049Z,7.55
2022-10-05T02:50:33.172Z,8.95
2022-10-05T02:53:22.951Z,9.02
2022-10-05T02:56:28.501Z,7.55
2022-10-05T02:59:10.405Z,8.85
2022-10-05T03:01:54.537Z,8.32
2022-10-05T03:04:34.901Z,8.88
2022-10-05T03:07:13.509Z,8.18
2022-10-05T03:09:47.353Z,8.07
2022-10-05T03:12:50.796Z,9.63
2022-10-05T03:15:25.351Z,9.02
2022-10-05T03:18:21.154Z,8.90
2022-10-05T03:20:56.390Z,8.15
2022-10-05T03:24:07.264Z,8.93
2022-10-05T03:26:44.769Z,8.50
2022-10-05T03:29:28.344Z,11.10
2022-10-05T03:32:06.869Z,9.07
2022-10-05T03:34:44.754Z,9.25
2022-10-05T03:37:30.708Z,9.05
2022-10-05T03:42:59.290Z,9.50
2022-10-05T03:45:30.848Z,9.95
2022-10-05T03:48:11.074Z,9.02
2022-10-05T03:50:42.962Z,9.60
2022-10-05T03:53:18.874Z,10.05
2022-10-05T03:55:51.216Z,9.82
2022-10-05T03:58:26.592Z,9.80
2022-10-05T04:01:03.707Z,10.02
2022-10-05T04:03:38.829Z,10.50
2022-10-05T04:06:13.089Z,11.48
2022-10-05T04:08:48.172Z,10.70
2022-10-05T04:11:26.768Z,11.05
2022-10-05T04:14:09.513Z,11.10
2022-10-05T04:16:41.418Z,11.82
2022-10-05T04:19:21.330Z,9.88
2022-10-05T04:22:05.551Z,10.57
2022-10-05T04:25:00.546Z,10.50
2022-10-05T04:27:35.258Z,10.88
2022-10-05T04:30:11.699Z,12.30
2022-10-05T04:32:47.278Z,11.75
2022-10-05T04:40:38.301Z,12.15
2022-10-05T04:43:31.897Z,11.95
2022-10-05T04:46:25.560Z,13.63
2022-10-05T04:49:12.453Z,13.35
2022-10-05T04:51:56.323Z,13.57
2022-10-05T04:54:41.653Z,14.00
2022-10-05T04:57:16.979Z,13.10
2022-10-05T05:00:19.818Z,15.82
2022-10-05T05:02:54.636Z,14.40
2022-10-05T05:05:20.348Z,15.50
2022-10-05T05:08:25.858Z,14.40
2022-10-05T05:11:06.846Z,15.40
2022-10-05T05:13:40.361Z,14.57
2022-10-05T05:16:32.424Z,15.32
2022-10-05T05:19:30.297Z,14.10
2022-10-05T05:22:22.070Z,14.10
2022-10-05T05:25:16.611Z,14.50
2022-10-05T05:27:48.718Z,14.15
2022-10-05T05:30:40.663Z,15.10
2022-10-05T05:33:18.513Z,14.68
2022-10-05T05:36:02.379Z,13.93
2022-10-05T05:39:10.588Z,13.73
2022-10-05T05:41:53.672Z,11.35
2022-10-05T05:44:22.069Z,11.60
2022-10-05T05:47:04.810Z,11.90
2022-10-05T05:49:47.188Z,10.45
2022-10-05T05:52:16.651Z,11.25
2022-10-05T05:54:54.054Z,10.50
2022-10-05T05:57:27.443Z,12.20
2022-10-05T06:00:04.969Z,10.73
2022-10-05T06:02:42.271Z,10.48
2022-10-05T06:05:27.150Z,11.55
2022-10-05T06:07:54.883Z,10.60
2022-10-05T06:10:24.118Z,14.60
2022-10-05T06:12:52.997Z,10.63
2022-10-05T06:15:31.883Z,11.35
2022-10-05T06:18:04.042Z,10.40
2022-10-05T06:20:37.536Z,9.90
2022-10-05T06:23:14.924Z,11.30
2022-10-05T06:25:49.614Z,9.80
2022-10-05T06:28:15.551Z,9.88
2022-10-05T06:30:49.791Z,10.10
2022-10-05T06:33:29.915Z,9.90
2022-10-05T06:36:17.068Z,9.15
2022-10-05T06:38:48.418Z,8.90
2022-10-05T06:41:37.055Z,9.13
2022-10-05T06:44:21.281Z,9.38
2022-10-05T06:47:10.013Z,9.18
2022-10-05T06:49:47.607Z,8.95
2022-10-05T06:52:35.072Z,9.20
2022-10-05T06:55:13.246Z,7.95
2022-10-05T06:57:48.610Z,8.05
2022-10-05T07:00:23.985Z,7.65
2022-10-05T07:03:00.737Z,7.80
2022-10-05T07:05:52.737Z,9.00
2022-10-05T07:08:37.372Z,7.85
2022-10-05T07:11:14.722Z,7.60
2022-10-05T07:14:03.961Z,8.63
2022-10-05T07:17:11.437Z,7.28
2022-10-05T07:20:16.166Z,7.35
2022-10-05T07:23:12.885Z,7.40
2022-10-05T07:26:11.016Z,7.70
2022-10-05T07:28:45.689Z,7.50
2022-10-05T07:31:37.408Z,7.30
2022-10-05T07:34:14.642Z,7.15
2022-10-05T07:37:20.677Z,6.75
2022-10-05T07:40:08.488Z,7.25
2022-10-05T07:42:48.987Z,7.75
2022-10-05T07:45:31.294Z,7.70
2022-10-05T07:48:06.087Z,7.60
2022-10-05T07:50:46.968Z,7.78
2022-10-05T07:53:24.144Z,6.95
2022-10-05T07:55:53.587Z,7.55
2022-10-05T07:58:33.642Z,7.53
2022-10-05T08:01:10.671Z,8.25
2022-10-05T08:04:08.922Z,7.35
2022-10-05T08:06:55.622Z,6.80
2022-10-05T08:09:49.288Z,7.43
2022-10-05T08:12:21.062Z,7.07
2022-10-05T08:15:19.866Z,6.85
2022-10-05T08:17:48.573Z,6.97
2022-10-05T08:20:34.296Z,6.90
2022-10-05T08:23:20.274Z,7.43
2022-10-05T08:28:38.466Z,7.15
2022-10-05T08:31:07.143Z,6.22
2022-10-05T08:33:49.997Z,7.05
2022-10-05T08:36:23.378Z,6.40
2022-10-05T08:38:54.568Z,6.80
2022-10-05T08:41:38.624Z,5.93
2022-10-05T08:44:04.366Z,6.03
2022-10-05T08:46:45.226Z,7.03
2022-10-05T08:49:48.017Z,6.10
2022-10-05T08:52:19.799Z,6.50
2022-10-05T08:55:09.648Z,5.97
2022-10-05T08:57:49.688Z,6.47
2022-10-05T09:00:23.261Z,6.03
2022-10-05T09:03:04.112Z,6.50
2022-10-05T09:05:42.081Z,6.47
2022-10-05T09:08:25.826Z,7.43
2022-10-05T09:11:03.923Z,6.20
2022-10-05T09:13:39.948Z,7.18
2022-10-05T09:16:16.227Z,7.00
2022-10-05T09:18:59.032Z,6.85
2022-10-05T09:21:27.494Z,7.30
2022-10-05T09:24:05.236Z,6.68
2022-10-05T09:26:39.994Z,7.00
2022-10-05T09:29:35.940Z,6.75
2022-10-05T09:32:19.711Z,6.32
2022-10-05T09:35:03.170Z,6.60
2022-10-05T09:37:51.369Z,6.65
2022-10-05T09:40:26.138Z,6.28
2022-10-05T09:43:29.379Z,5.70
2022-10-05T09:46:23.627Z,5.50
2022-10-05T09:48:55.885Z,6.03
2022-10-05T09:51:40.336Z,5.70
2022-10-05T09:54:32.246Z,5.90
2022-10-05T09:57:11.203Z,5.60
2022-10-05T10:00:14.428Z,4.88
2022-10-05T10:02:55.531Z,4.57
2022-10-05T10:05:33.381Z,4.47
2022-10-05T10:08:19.501Z,4.57
2022-10-05T10:11:22.913Z,4.20
2022-10-05T10:14:16.615Z,4.45
2022-10-05T10:17:15.536Z,4.63
2022-10-05T10:19:44.300Z,4.70
2022-10-05T10:22:49.397Z,4.53
2022-10-05T10:25:54.353Z,5.22
2022-10-05T10:28:52.555Z,4.15
2022-10-05T10:31:42.432Z,4.63
2022-10-05T10:34:26.887Z,4.60
2022-10-05T10:37:30.510Z,4.30
2022-10-05T10:40:29.360Z,4.55
2022-10-05T10:42:55.587Z,4.63
2022-10-05T10:45:48.608Z,4.38
2022-10-05T10:48:29.451Z,3.90
2022-10-05T10:51:13.838Z,3.53
2022-10-05T10:54:11.717Z,3.78
2022-10-05T10:57:21.782Z,4.03
2022-10-05T11:00:05.362Z,3.75
2022-10-05T11:02:32.102Z,3.17
2022-10-05T11:05:22.216Z,3.15
2022-10-05T11:08:31.419Z,3.58
2022-10-05T11:11:21.821Z,3.30
2022-10-05T11:14:25.390Z,3.13
2022-10-05T11:17:17.205Z,2.75
2022-10-05T11:20:06.170Z,2.70
2022-10-05T11:22:55.805Z,3.13
2022-10-05T11:25:32.711Z,3.88
2022-10-05T11:28:17.339Z,3.20
2022-10-05T11:31:03.625Z,3.30
2022-10-05T11:33:51.515Z,2.72
2022-10-05T11:36:51.142Z,2.83
2022-10-05T11:39:42.218Z,2.88
2022-10-05T11:42:45.504Z,2.55
2022-10-05T11:45:37.430Z,2.33
2022-10-05T11:48:15.024Z,2.70
2022-10-05T11:51:28.979Z,2.38
2022-10-05T11:54:00.857Z,2.17
2022-10-05T11:56:36.683Z,2.17
2022-10-05T11:59:14.520Z,2.15
2022-10-05T12:01:48.587Z,2.00
2022-10-05T12:04:28.498Z,1.70
2022-10-05T12:07:07.297Z,1.80
2022-10-05T12:10:06.096Z,2.08
2022-10-05T12:12:53.010Z,2.00
2022-10-05T12:15:36.796Z,2.10
2022-10-05T12:18:12.756Z,3.25
2022-10-05T12:20:48.003Z,1.40
2022-10-05T12:23:54.591Z,1.80
2022-10-05T12:26:34.622Z,1.35
2022-10-05T12:29:13.134Z,1.42
2022-10-05T12:31:58.124Z,1.42
2022-10-05T12:37:04.714Z,1.35
2022-10-05T12:39:49.316Z,1.33
2022-10-05T12:42:40.829Z,1.35
2022-10-05T12:45:17.657Z,1.30
2022-10-05T12:47:59.805Z,1.35
2022-10-05T12:51:04.116Z,1.67
2022-10-05T12:53:47.752Z,1.40
2022-10-05T12:56:36.107Z,1.20
2022-10-05T12:59:11.039Z,1.00
2022-10-05T13:01:49.343Z,1.17
2022-10-05T13:04:35.069Z,1.20
2022-10-05T13:07:15.834Z,1.00
2022-10-05T13:10:00.188Z,1.60
2022-10-05T13:12:47.258Z,1.05
2022-10-05T13:15:26.569Z,1.10
2022-10-05T13:18:21.470Z,1.00
2022-10-05T13:21:03.859Z,0.98
2022-10-05T13:23:35.460Z,0.93
2022-10-05T13:26:16.921Z,0.80
2022-10-05T13:28:59.782Z,1.40
2022-10-05T13:31:37.848Z,0.93
2022-10-05T13:34:29.657Z,0.60
2022-10-05T13:37:27.013Z,0.65
2022-10-05T13:40:01.459Z,1.75
2022-10-05T13:42:38.941Z,0.90
2022-10-05T13:45:10.675Z,0.82
2022-10-05T13:47:53.444Z,0.90
2022-10-05T13:50:44.181Z,1.02
2022-10-05T13:53:36.337Z,0.82
2022-10-05T13:56:25.193Z,1.10
2022-10-05T13:59:14.341Z,1.13
2022-10-05T14:01:48.379Z,1.00
2022-10-05T14:04:20.333Z,1.00
2022-10-05T14:06:47.782Z,0.85
2022-10-05T14:09:19.620Z,1.50
2022-10-05T14:11:50.913Z,1.20
2022-10-05T14:14:29.682Z,1.52
2022-10-05T14:16:58.238Z,1.10
2022-10-05T14:19:31.051Z,1.38
2022-10-05T14:22:23.794Z,1.20
2022-10-05T14:25:13.203Z,1.20
2022-10-05T14:28:02.357Z,1.00
2022-10-05T14:30:31.439Z,1.00
2022-10-05T14:33:13.257Z,0.73
2022-10-05T14:35:48.507Z,1.13
2022-10-05T14:41:20.232Z,1.27
2022-10-05T14:43:51.815Z,1.45
2022-10-05T14:46:21.833Z,1.20
2022-10-05T14:49:10.408Z,1.15
2022-10-05T14:51:36.895Z,1.15
2022-10-05T14:54:20.627Z,1.17
2022-10-05T14:57:01.716Z,1.08
2022-10-05T14:59:49.619Z,1.20
2022-10-05T15:02:44.327Z,1.30
2022-10-05T15:05:37.199Z,1.83
2022-10-05T15:08:11.461Z,1.38
2022-10-05T15:10:49.156Z,1.33
2022-10-05T15:13:18.468Z,1.40
2022-10-05T15:15:51.296Z,1.73
2022-10-05T15:18:48.438Z,1.42
2022-10-05T15:21:41.553Z,1.40
2022-10-05T15:24:25.620Z,1.77
2022-10-05T15:27:04.319Z,2.00
2022-10-05T15:29:54.128Z,2.00
2022-10-05T15:32:47.178Z,1.98
2022-10-05T15:35:31.367Z,1.60
2022-10-05T15:38:03.055Z,1.77
2022-10-05T15:40:58.028Z,1.70
2022-10-05T15:43:28.221Z,1.55
2022-10-05T15:46:16.174Z,1.52
2022-10-05T15:48:53.357Z,1.90
2022-10-05T15:51:30.681Z,1.92
2022-10-05T15:54:49.065Z,1.67
2022-10-05T15:57:34.745Z,2.00
2022-10-05T16:00:21.530Z,2.45
2022-10-05T16:03:02.153Z,2.25
2022-10-05T16:06:09.319Z,2.10
2022-10-05T16:08:53.761Z,2.25
2022-10-05T16:11:43.724Z,2.20
2022-10-05T16:14:09.581Z,2.10
2022-10-05T16:17:13.140Z,2.08
2022-10-05T16:19:46.478Z,2.22
2022-10-05T16:22:18.359Z,2.45
2022-10-05T16:24:57.362Z,2.00
2022-10-05T16:27:46.190Z,2.47
2022-10-05T16:30:17.471Z,2.08
2022-10-05T16:33:00.183Z,2.00
2022-10-05T16:35:43.645Z,2.45
2022-10-05T16:38:32.726Z,2.88
2022-10-05T16:41:04.987Z,2.08
2022-10-05T16:43:53.221Z,1.90
2022-10-05T16:46:37.547Z,2.75
2022-10-05T16:49:12.064Z,2.13
2022-10-05T16:51:47.815Z,2.20
2022-10-05T16:54:25.240Z,2.38
2022-10-05T16:57:12.655Z,2.28
2022-10-05T16:59:52.979Z,2.40
2022-10-05T17:02:30.611Z,2.22
2022-10-05T17:05:21.730Z,2.28
2022-10-05T17:07:58.481Z,2.30
2022-10-05T17:10:36.521Z,2.97
2022-10-05T17:13:22.474Z,2.97
2022-10-05T17:16:12.783Z,2.60
2022-10-05T17:19:06.659Z,2.63
2022-10-05T17:21:49.344Z,3.45
2022-10-05T17:24:50.907Z,3.90
2022-10-05T17:27:28.717Z,2.78
2022-10-05T17:30:19.698Z,2.70
2022-10-05T17:33:17.696Z,2.90
2022-10-05T17:36:11.726Z,2.15
2022-10-05T17:38:49.995Z,2.40
2022-10-05T17:41:22.902Z,2.25
2022-10-05T17:44:18.458Z,2.33
2022-10-05T17:46:47.101Z,2.30
2022-10-05T17:49:25.131Z,2.85
2022-10-05T17:52:09.105Z,2.30
2022-10-05T17:55:14.083Z,3.00
2022-10-05T17:57:41.220Z,2.67
2022-10-05T18:01:00.057Z,2.45
2022-10-05T18:03:40.617Z,2.83
2022-10-05T18:06:24.980Z,2.42
2022-10-05T18:09:22.038Z,2.42
2022-10-05T18:12:15.481Z,3.40
2022-10-05T18:14:56.590Z,2.42
2022-10-05T18:17:45.768Z,2.40
2022-10-05T18:20:14.381Z,2.35
2022-10-05T18:22:45.732Z,2.30
2022-10-05T18:25:42.784Z,2.47
2022-10-05T18:28:30.273Z,2.30
2022-10-05T18:31:02.485Z,2.33
2022-10-05T18:33:36.153Z,2.03
2022-10-05T18:36:20.449Z,3.13
2022-10-05T18:38:59.549Z,2.95
2022-10-05T18:41:53.582Z,3.20
2022-10-05T18:44:25.696Z,3.10
2022-10-05T18:47:30.151Z,3.58
2022-10-05T18:50:02.572Z,3.05
2022-10-05T18:52:44.437Z,3.53
2022-10-05T18:55:16.283Z,3.83
2022-10-05T18:57:57.354Z,3.70
2022-10-05T19:00:25.009Z,3.28
2022-10-05T19:03:00.119Z,3.05
2022-10-05T19:05:48.742Z,3.47
2022-10-05T19:08:17.983Z,3.08
2022-10-05T19:10:54.725Z,2.78
2022-10-05T19:13:23.366Z,2.47
2022-10-05T19:16:19.499Z,3.00
2022-10-05T19:18:45.422Z,3.22
2022-10-05T19:21:34.845Z,3.30
2022-10-05T19:24:09.555Z,2.25
2022-10-05T19:27:03.318Z,2.30
2022-10-05T19:29:42.511Z,2.15
2022-10-05T19:32:18.018Z,2.50
2022-10-05T19:35:08.868Z,2.50
2022-10-05T19:37:53.241Z,3.30
2022-10-05T19:40:34.031Z,2.42
2022-10-05T19:43:27.378Z,2.47
2022-10-05T19:46:19.939Z,2.42
2022-10-05T19:48:52.961Z,2.05
2022-10-05T19:51:24.920Z,2.10
2022-10-05T19:53:55.326Z,2.13
2022-10-05T19:56:32.276Z,2.50
2022-10-05T19:59:12.437Z,2.25
2022-10-05T20:01:39.638Z,1.88
2022-10-05T20:04:06.625Z,1.90
2022-10-05T20:06:33.253Z,1.95
2022-10-05T20:09:17.046Z,1.85
2022-10-05T20:11:51.086Z,1.55
2022-10-05T20:14:19.635Z,2.10
2022-10-05T20:17:04.282Z,2.25
2022-10-05T20:19:36.284Z,1.95
2022-10-05T20:22:25.787Z,2.00
2022-10-05T20:24:54.750Z,1.80
2022-10-05T20:27:42.226Z,1.90
2022-10-05T20:30:10.580Z,2.33
2022-10-05T20:32:36.496Z,2.28
2022-10-05T20:35:02.954Z,2.25
2022-10-05T20:37:29.130Z,2.50
2022-10-05T20:39:55.185Z,2.00
2022-10-05T20:42:23.153Z,2.40
2022-10-05T20:44:52.967Z,2.55
2022-10-05T20:47:22.560Z,2.28
2022-10-05T20:49:48.531Z,2.22
2022-10-05T20:52:15.188Z,2.35
2022-10-05T20:54:41.666Z,1.80
2022-10-05T20:57:08.651Z,2.25
2022-10-05T20:59:35.698Z,2.03
2022-10-05T21:02:03.030Z,2.08
2022-10-05T21:04:40.232Z,2.42
2022-10-05T21:07:06.514Z,2.00
2022-10-05T21:09:32.389Z,2.90
2022-10-05T21:11:58.249Z,2.05
2022-10-05T21:14:27.361Z,1.83
2022-10-05T21:16:53.269Z,1.63
2022-10-05T21:19:19.020Z,2.33
2022-10-05T21:21:45.961Z,1.70
2022-10-05T21:24:13.552Z,1.90
2022-10-05T21:26:40.899Z,2.10
2022-10-05T21:29:12.336Z,1.90
2022-10-05T21:31:39.227Z,2.00
2022-10-05T21:34:05.134Z,1.65
2022-10-05T21:36:31.841Z,1.90
2022-10-05T21:38:57.814Z,1.98
2022-10-05T21:41:23.749Z,1.65
2022-10-05T21:43:49.515Z,1.52
2022-10-05T21:46:19.608Z,2.25
2022-10-05T21:48:46.568Z,1.55
2022-10-05T21:51:15.930Z,1.65
2022-10-05T21:53:47.924Z,1.77
2022-10-05T21:56:16.853Z,2.38
2022-10-05T21:58:45.651Z,1.73
2022-10-05T22:01:11.972Z,1.80
2022-10-05T22:03:37.827Z,2.10
2022-10-05T22:06:04.373Z,2.38
2022-10-05T22:08:32.059Z,1.67
2022-10-05T22:10:59.545Z,1.88
2022-10-05T22:13:26.673Z,1.90
2022-10-05T22:15:55.492Z,2.00
2022-10-05T22:18:23.166Z,2.00
2022-10-05T22:20:50.453Z,2.08
2022-10-05T22:23:16.418Z,1.70
2022-10-05T22:25:42.536Z,2.00
2022-10-05T22:28:11.348Z,1.48
2022-10-05T22:30:38.329Z,1.73
2022-10-05T22:33:04.477Z,2.35
2022-10-05T22:35:34.834Z,2.15
2022-10-05T22:38:02.245Z,1.77
2022-10-05T22:40:28.009Z,2.30
2022-10-05T22:42:53.874Z,1.98
2022-10-05T22:45:19.724Z,2.15
2022-10-05T22:47:45.501Z,1.90
2022-10-05T22:50:11.315Z,2.28
2022-10-05T22:52:37.122Z,1.95
2022-10-05T22:55:03.180Z,1.73
2022-10-05T22:57:39.848Z,2.85
2022-10-05T23:00:07.039Z,1.88
2022-10-05T23:02:37.044Z,0.80
2022-10-05T23:05:03.781Z,0.70
2022-10-05T23:07:36.163Z,0.60
2022-10-05T23:10:03.507Z,0.57
2022-10-05T23:12:29.222Z,0.60
2022-10-05T23:14:54.943Z,0.50
2022-10-05T23:17:21.020Z,0.98
2022-10-05T23:19:46.774Z,0.70
2022-10-05T23:22:12.524Z,1.45
2022-10-05T23:24:38.297Z,0.70
2022-10-05T23:27:04.038Z,0.95
2022-10-05T23:29:29.773Z,1.40
2022-10-05T23:31:55.555Z,0.75
2022-10-05T23:34:21.320Z,1.25
2022-10-05T23:36:47.107Z,0.60
2022-10-05T23:39:16.065Z,0.77
2022-10-05T23:41:43.955Z,0.95
2022-10-05T23:44:10.194Z,0.90
2022-10-05T23:46:35.921Z,1.30
2022-10-05T23:49:01.959Z,0.77
2022-10-05T23:51:28.179Z,0.95
2022-10-05T23:53:53.919Z,1.15
2022-10-05T23:56:19.731Z,1.20
2022-10-05T23:58:45.589Z,0.95
